Telluride, CO (81435)

10:34 AM MDT on August 30, 2015 (GMT -0600)
Upper Benchmark | | Change Station
CLOSE
Current Station
Personal Weather Station
Location: Mountain Village, CO
Elevation: 10118 ft
Nearby Weather Stations

Elev 10118 ft 37.92 °N, 107.86 °W | Updated 1 second ago

Clear
Clear
62.6 °F
Feels Like 62.6 °F
N
0.0
Wind Variable Wind from East
Gusts 0.0 mph

Today
High -- | Low -- °F
--% Chance of Precip.
Yesterday
High -- | Low -- °F
Precip. -- in
6:39 AM 7:43 PM
Full, 99% visible
Pressure 30.48 in
Visibility 10.0 miles
Clouds Scattered Clouds 10000 ft
Scattered Clouds 12000 ft
Dew Point 41 °F
Humidity 45%
Rainfall 0.00 in
Snow Depth Not available.
UV 2.0 out of 12
Pollen 9.90 out of 12
Air Quality Not available.
Flu Activity Not available.
METAR KTEX 301615Z AUTO 00000KT 10SM SCT100 SCT120 21/05 A3048 RMK AO2 T02060047
Pressure 30.48 in
Visibility 10.0 miles
Clouds Scattered Clouds 10000 ft
Scattered Clouds 12000 ft
Dew Point 41 °F
Humidity 45%
Rainfall 0.00 in
Snow Depth Not available.
UV 2.0 out of 12
Pollen 9.90 out of 12
Air Quality Not available.
Flu Activity Not available.
METAR KTEX 301615Z AUTO 00000KT 10SM SCT100 SCT120 21/05 A3048 RMK AO2 T02060047

10-Day Weather Forecast

×

Almanac

Astronomy

Aug. 30, 2015 Rise Set
Actual Time
Civil Twilight
Nautical Twilight
Astronomical Twilight
Moon
Length of Visible Light
Length of Day
Tomorrow will be .
, % of the Moon is Illuminated

Today's Extremes

State Highs State Lows

Community

WunderPhotos

Upload Photos

1,851,008 photos uploaded!

WunderBlogs® & News

Nearby

Air Quality

  Air Quality AQ Index Pollutant
Not available.

Snow Depth

Station Depth Elevation

Earthquake Activity

City Distance Mag. Time & Date
Minimum magnitude displayed is 2.5.

Coastal Water Temperatures

Place Temperature

Stations

Nearby Weather Stations

Station Location Temp. Windchill Dew Point Humidity Wind Precip. Elev Updated Type